sensor_id;sensor_type;location;lat;lon;timestamp;P1;P2;P0
45312;PMS7003;68267;51.540;5.854;2023-05-07T00:07:18;11.65;13.85;13.53
45312;PMS7003;68267;51.540;5.854;2023-05-07T00:20:38;12.01;14.18;13.96
45312;PMS7003;68267;51.540;5.854;2023-05-07T00:33:58;13.33;15.38;14.83
45312;PMS7003;68267;51.540;5.854;2023-05-07T00:47:18;11.89;14.07;13.96
45312;PMS7003;68267;51.540;5.854;2023-05-07T01:00:37;13.45;15.49;15.05
45312;PMS7003;68267;51.540;5.854;2023-05-07T01:13:57;14.05;16.03;15.38
45312;PMS7003;68267;51.540;5.854;2023-05-07T01:27:17;13.93;15.92;15.38
45312;PMS7003;68267;51.540;5.854;2023-05-07T01:40:36;16.09;17.89;17.56
45312;PMS7003;68267;51.540;5.854;2023-05-07T01:53:56;16.21;17.99;17.56
45312;PMS7003;68267;51.540;5.854;2023-05-07T02:07:16;16.69;18.43;17.89
45312;PMS7003;68267;51.540;5.854;2023-05-07T02:20:35;19.69;21.16;20.39
45312;PMS7003;68267;51.540;5.854;2023-05-07T02:33:55;18.97;19.96;19.52
45312;PMS7003;68267;51.540;5.854;2023-05-07T02:47:15;19.21;20.72;20.07
45312;PMS7003;68267;51.540;5.854;2023-05-07T03:00:34;18.49;20.07;19.74
45312;PMS7003;68267;51.540;5.854;2023-05-07T03:13:54;19.21;20.72;20.39
45312;PMS7003;68267;51.540;5.854;2023-05-07T03:27:14;19.69;21.16;20.5
45312;PMS7003;68267;51.540;5.854;2023-05-07T03:40:33;22.21;23.44;23.12
45312;PMS7003;68267;51.540;5.854;2023-05-07T03:53:53;26.17;27.04;26.39
45312;PMS7003;68267;51.540;5.854;2023-05-07T04:07:13;27.73;28.46;27.7
45312;PMS7003;68267;51.540;5.854;2023-05-07T04:20:32;27.85;28.57;27.8
45312;PMS7003;68267;51.540;5.854;2023-05-07T04:33:52;29.17;29.77;28.79
45312;PMS7003;68267;51.540;5.854;2023-05-07T04:47:11;30.49;30.96;30.2
45312;PMS7003;68267;51.540;5.854;2023-05-07T05:00:31;31.33;31.73;31.18
45312;PMS7003;68267;51.540;5.854;2023-05-07T05:13:51;34.82;34.89;33.47
45312;PMS7003;68267;51.540;5.854;2023-05-07T05:27:11;34.58;34.67;33.58
45312;PMS7003;68267;51.540;5.854;2023-05-07T05:40:30;35.18;34.89;33.58
45312;PMS7003;68267;51.540;5.854;2023-05-07T05:53:50;33.74;33.91;32.82
45312;PMS7003;68267;51.540;5.854;2023-05-07T06:07:10;33.13;33.36;32.27
45312;PMS7003;68267;51.540;5.854;2023-05-07T06:20:30;28.69;29.33;28.68
45312;PMS7003;68267;51.540;5.854;2023-05-07T06:33:49;26.53;27.37;26.82
45312;PMS7003;68267;51.540;5.854;2023-05-07T06:47:09;25.69;26.61;25.84
45312;PMS7003;68267;51.540;5.854;2023-05-07T07:00:29;23.77;24.43;23.44
45312;PMS7003;68267;51.540;5.854;2023-05-07T07:13:48;20.53;21.92;21.26
45312;PMS7003;68267;51.540;5.854;2023-05-07T07:27:08;18.97;19.63;19.41
45312;PMS7003;68267;51.540;5.854;2023-05-07T07:40:28;17.29;18.98;18.43
45312;PMS7003;68267;51.540;5.854;2023-05-07T07:53:48;15.25;17.12;16.58
45312;PMS7003;68267;51.540;5.854;2023-05-07T08:07:08;15.37;17.23;16.69
45312;PMS7003;68267;51.540;5.854;2023-05-07T08:20:27;15.85;17.67;16.69
45312;PMS7003;68267;51.540;5.854;2023-05-07T08:33:47;13.45;15.49;15.05
45312;PMS7003;68267;51.540;5.854;2023-05-07T08:47:07;12.01;14.18;13.74
45312;PMS7003;68267;51.540;5.854;2023-05-07T09:00:27;10.45;12.76;12.54
45312;PMS7003;68267;51.540;5.854;2023-05-07T09:13:46;9.37;11.78;11.24
45312;PMS7003;68267;51.540;5.854;2023-05-07T09:27:06;9.13;11.56;11.02
45312;PMS7003;68267;51.540;5.854;2023-05-07T09:40:26;9.85;12.22;11.67
45312;PMS7003;68267;51.540;5.854;2023-05-07T09:53:46;9.73;11.35;10.8
45312;PMS7003;68267;51.540;5.854;2023-05-07T10:07:06;6.49;9.17;8.95
45312;PMS7003;68267;51.540;5.854;2023-05-07T10:20:25;5.41;8.18;7.42
45312;PMS7003;68267;51.540;5.854;2023-05-07T10:33:45;5.41;8.18;7.64
45312;PMS7003;68267;51.540;5.854;2023-05-07T10:47:05;7.81;10.36;9.6
45312;PMS7003;68267;51.540;5.854;2023-05-07T11:00:24;2.64;5.68;5.24
45312;PMS7003;68267;51.540;5.854;2023-05-07T11:13:44;4.45;7.31;6.66
45312;PMS7003;68267;51.540;5.854;2023-05-07T11:27:04;4.93;7.75;6.88
45312;PMS7003;68267;51.540;5.854;2023-05-07T11:40:23;5.05;7.86;7.09
45312;PMS7003;68267;51.540;5.854;2023-05-07T11:53:43;2.64;5.68;5.13
45312;PMS7003;68267;51.540;5.854;2023-05-07T12:07:03;4.69;7.53;6.99
45312;PMS7003;68267;51.540;5.854;2023-05-07T12:20:23;6.25;6.88;6.44
45312;PMS7003;68267;51.540;5.854;2023-05-07T12:33:42;6.73;9.38;7.75
45312;PMS7003;68267;51.540;5.854;2023-05-07T12:47:02;0.72;3.93;3.5
45312;PMS7003;68267;51.540;5.854;2023-05-07T13:00:21;0.01;2.3;2.19
45312;PMS7003;68267;51.540;5.854;2023-05-07T13:13:41;0.12;3.39;2.95
45312;PMS7003;68267;51.540;5.854;2023-05-07T13:27:01;0.01;2.84;2.84
45312;PMS7003;68267;51.540;5.854;2023-05-07T13:40:21;1.32;4.48;3.93
45312;PMS7003;68267;51.540;5.854;2023-05-07T13:53:40;2.04;5.13;4.8
45312;PMS7003;68267;51.540;5.854;2023-05-07T14:07:00;3.48;6.44;5.9
45312;PMS7003;68267;51.540;5.854;2023-05-07T14:20:20;7.93;5.57;5.35
45312;PMS7003;68267;51.540;5.854;2023-05-07T14:33:39;5.29;6.22;5.79
45312;PMS7003;68267;51.540;5.854;2023-05-07T14:46:59;0.01;2.19;2.08
45312;PMS7003;68267;51.540;5.854;2023-05-07T15:00:19;0.01;2.19;2.19
45312;PMS7003;68267;51.540;5.854;2023-05-07T15:13:39;0.24;3.5;3.17
45312;PMS7003;68267;51.540;5.854;2023-05-07T15:26:59;0.01;3.17;2.95
45312;PMS7003;68267;51.540;5.854;2023-05-07T15:40:19;0.36;3.61;3.17
45312;PMS7003;68267;51.540;5.854;2023-05-07T15:53:38;4.33;3.82;3.71
45312;PMS7003;68267;51.540;5.854;2023-05-07T16:06:58;1.08;4.26;4.04
45312;PMS7003;68267;51.540;5.854;2023-05-07T16:20:17;1.2;4.37;3.93
45312;PMS7003;68267;51.540;5.854;2023-05-07T16:33:37;4.21;5.46;4.91
45312;PMS7003;68267;51.540;5.854;2023-05-07T16:46:57;7.09;6.22;5.68
45312;PMS7003;68267;51.540;5.854;2023-05-07T17:00:16;3.85;6.77;6.33
45312;PMS7003;68267;51.540;5.854;2023-05-07T17:13:36;3.73;6.66;6.55
45312;PMS7003;68267;51.540;5.854;2023-05-07T17:26:56;3.73;6.66;6.33
45312;PMS7003;68267;51.540;5.854;2023-05-07T17:40:16;4.09;6.99;6.66
45312;PMS7003;68267;51.540;5.854;2023-05-07T17:53:35;2.52;5.57;4.8
45312;PMS7003;68267;51.540;5.854;2023-05-07T18:06:55;4.09;6.99;6.88
45312;PMS7003;68267;51.540;5.854;2023-05-07T18:20:14;5.41;8.18;7.42
45312;PMS7003;68267;51.540;5.854;2023-05-07T18:33:34;6.01;8.73;8.51
45312;PMS7003;68267;51.540;5.854;2023-05-07T18:46:54;6.37;9.06;8.95
45312;PMS7003;68267;51.540;5.854;2023-05-07T19:00:13;6.37;9.06;8.73
45312;PMS7003;68267;51.540;5.854;2023-05-07T19:13:33;8.53;9.38;9.17
45312;PMS7003;68267;51.540;5.854;2023-05-07T19:26:53;6.37;9.06;9.06
45312;PMS7003;68267;51.540;5.854;2023-05-07T19:40:12;6.85;9.49;9.17
45312;PMS7003;68267;51.540;5.854;2023-05-07T19:53:32;7.69;10.26;9.82
45312;PMS7003;68267;51.540;5.854;2023-05-07T20:06:52;7.93;10.47;10.15
45312;PMS7003;68267;51.540;5.854;2023-05-07T20:20:11;9.01;11.45;11.45
45312;PMS7003;68267;51.540;5.854;2023-05-07T20:33:31;9.13;11.56;11.45
45312;PMS7003;68267;51.540;5.854;2023-05-07T20:46:51;10.69;12.98;12.44
45312;PMS7003;68267;51.540;5.854;2023-05-07T21:00:11;10.69;12.98;12.87
45312;PMS7003;68267;51.540;5.854;2023-05-07T21:13:30;10.81;13.09;12.98
45312;PMS7003;68267;51.540;5.854;2023-05-07T21:26:50;11.89;14.07;13.74
45312;PMS7003;68267;51.540;5.854;2023-05-07T21:40:10;12.61;14.72;14.62
45312;PMS7003;68267;51.540;5.854;2023-05-07T21:53:29;10.69;12.98;12.65
45312;PMS7003;68267;51.540;5.854;2023-05-07T22:06:49;13.09;13.74;13.74
45312;PMS7003;68267;51.540;5.854;2023-05-07T22:20:09;13.21;15.27;15.16
45312;PMS7003;68267;51.540;5.854;2023-05-07T22:33:29;13.09;15.16;15.05
45312;PMS7003;68267;51.540;5.854;2023-05-07T22:46:48;14.05;16.03;15.92
45312;PMS7003;68267;51.540;5.854;2023-05-07T23:00:08;15.61;17.45;17.34
45312;PMS7003;68267;51.540;5.854;2023-05-07T23:13:28;15.97;17.78;17.56
45312;PMS7003;68267;51.540;5.854;2023-05-07T23:26:47;17.05;18.76;18.32
45312;PMS7003;68267;51.540;5.854;2023-05-07T23:40:07;15.73;17.56;17.34
45312;PMS7003;68267;51.540;5.854;2023-05-07T23:53:27;19.69;20.17;20.07
